2008/4/27 日曜日

今日の戦利品

とれいん今日はさかつうの主催する「鉄道模型市」に行ってきました。

戦利品は手ブレして判りづらいですが写真のとおり、「とれいん」の24号(1976年12月号) と44号(1978年8月号)です。模型製作資料で24号はED18が、44号はED16が掲載されているので、今後の模型製作を想って買ってしまいました。
旧型電機や飯田線は◇敏郎◇の模型のテーマの一つなのです。今年はアートプロ(さくら模型)からED18の発売が予定されているようなので役に立つことがあるでしょう。

雑誌だけでなく模型にも気になった商品(乗工社のD61やモデルワーゲンの助六の酒井製5tDL等)がいくつかありましたが思ったほど安くなかったので、ぐっと我慢しました。

Tag:

  • 第5回軽便鉄道模型祭
  • 公開運転会
  • さいたま鉄道模型フェスタ2008
  • 大鉄道博覧会
  • Filed under: model — ◇敏郎◇ @ 21:39:00

    2008/4/24 木曜日

    いよいよ聖火がやって来ます。

    明日、羽田に到着予定です。

    CCA2008 B-6075 A332 YSCB/RJTT

    飛行機マニア的には聖火リレーより特別塗装の機体の方が気になるんです。

    RJTT 241145Z 241221 07006KT 3000 -SHRA BR FEW005 BKN008 BKN015
    TEMPO 1214 1500 SHRA BR FEW003 BKN005 BKN010
    BECMG 1416 35010KT 8000 NSW FEW030 BKN050

    到着時の予報は雨にはなってないようですが、明日の羽田は大騒ぎでしょうねぇ〜。
    さて、どうなることやら??

    Tags: ,

  • 久しぶりの城南島
  • 羽田の国際線
  • 羽田のBizJet
  • スタアラジャンボ
  • 海外LCC (その3)
  • SKYTEAM塗装機
  • 羽田Nエリア
  • レトロ塗装
  • B737が主役
  • 羽田でジャンボ
  • 3年半ぶりの羽田(ANA編)
  • 3年半ぶりの羽田(JAL編)
  • 航空連合
  • 今日も羽田へ。
  • 羽田でジャンボ
  • 久しぶりの羽田
  • 九州遠征
  • 新聞記者にもマニアがいますね。
  • 着陸復航
  • 花火大会。
  • 羽田に戻って来ました。
  • Filed under: Airliner, Spotting — ◇敏郎◇ @ 22:09:43

    HTML convert time: 0.300 sec. Powered by WordPress ME